createdAt,value
2016-03-27T00:00:09.761Z,85.42
2016-03-27T00:01:09.752Z,85.51
2016-03-27T00:02:09.754Z,85.61
2016-03-27T00:03:09.757Z,85.61
2016-03-27T00:04:09.775Z,85.42
2016-03-27T00:05:09.763Z,85.32
2016-03-27T00:06:09.765Z,85.13
2016-03-27T00:07:09.768Z,85.75
2016-03-27T00:08:09.755Z,85.8
2016-03-27T00:09:09.758Z,85.8
2016-03-27T00:10:09.760Z,85.89
2016-03-27T00:11:09.763Z,85.8
2016-03-27T00:12:09.750Z,85.75
2016-03-27T00:13:09.752Z,85.61
2016-03-27T00:14:09.755Z,85.57
2016-03-27T00:15:09.757Z,86.08
2016-03-27T00:16:09.760Z,86.18
2016-03-27T00:17:09.747Z,86.18
2016-03-27T00:18:09.760Z,86.13
2016-03-27T00:19:09.733Z,86.04
2016-03-27T00:20:09.721Z,86.08
2016-03-27T00:21:09.708Z,86.22
2016-03-27T00:22:09.696Z,86.22
2016-03-27T00:23:09.671Z,86.22
2016-03-27T00:24:09.668Z,85.94
2016-03-27T00:25:09.666Z,86.04
2016-03-27T00:26:09.663Z,85.85
2016-03-27T00:27:09.660Z,85.94
2016-03-27T00:28:09.643Z,85.75
2016-03-27T00:29:09.659Z,86.04
2016-03-27T00:30:09.644Z,85.94
2016-03-27T00:31:09.660Z,86.04
2016-03-27T00:32:09.645Z,86.51
2016-03-27T00:33:09.645Z,86.79
2016-03-27T00:34:09.647Z,86.79
2016-03-27T00:35:09.634Z,86.79
2016-03-27T00:36:09.636Z,86.79
2016-03-27T00:37:09.637Z,86.6
2016-03-27T00:38:09.640Z,86.41
2016-03-27T00:39:09.643Z,86.6
2016-03-27T00:40:09.646Z,87.17
2016-03-27T00:41:09.648Z,86.79
2016-03-27T00:42:09.635Z,86.7
2016-03-27T00:43:09.637Z,86.41
2016-03-27T00:44:09.641Z,86.79
2016-03-27T00:45:09.643Z,86.7
2016-03-27T00:46:10.036Z,86.51
2016-03-27T00:47:09.633Z,86.41
2016-03-27T00:48:09.636Z,86.41
2016-03-27T00:49:09.639Z,86.04
2016-03-27T00:50:11.219Z,86.22
2016-03-27T00:51:09.628Z,86.22
2016-03-27T00:52:09.647Z,86.32
2016-03-27T00:53:09.634Z,86.6
2016-03-27T00:54:09.636Z,86.75
2016-03-27T00:55:09.622Z,86.75
2016-03-27T00:56:09.626Z,86.75
2016-03-27T00:57:09.628Z,86.56
2016-03-27T00:58:09.631Z,86.47
2016-03-27T00:59:09.634Z,86.47
2016-03-27T01:00:09.621Z,86.75
2016-03-27T01:01:09.624Z,86.75
2016-03-27T01:02:09.627Z,86.85
2016-03-27T01:03:09.629Z,86.85
2016-03-27T01:04:09.647Z,86.85
2016-03-27T01:05:09.635Z,86.75
2016-03-27T01:06:09.637Z,87.13
2016-03-27T01:07:09.641Z,87.04
2016-03-27T01:08:09.631Z,87.04
2016-03-27T01:09:09.633Z,87.04
2016-03-27T01:10:09.636Z,86.85
2016-03-27T01:11:09.623Z,87.13
2016-03-27T01:12:09.625Z,86.75
2016-03-27T01:13:09.629Z,87.04
2016-03-27T01:14:09.631Z,86.85
2016-03-27T01:15:09.618Z,87.23
2016-03-27T01:16:09.622Z,87.41
2016-03-27T01:17:09.624Z,87.23
2016-03-27T01:18:09.641Z,87.51
2016-03-27T01:19:09.630Z,87.41
2016-03-27T01:20:09.616Z,87.13
2016-03-27T01:21:09.619Z,87.13
2016-03-27T01:22:09.622Z,87.32
2016-03-27T01:23:09.624Z,87.41
2016-03-27T01:24:09.627Z,87.6
2016-03-27T01:25:09.630Z,87.41
2016-03-27T01:26:09.616Z,87.51
2016-03-27T01:27:09.618Z,87.41
2016-03-27T01:28:09.622Z,87.51
2016-03-27T01:29:09.624Z,87.41
2016-03-27T01:30:09.627Z,87.51
2016-03-27T01:31:09.615Z,87.51
2016-03-27T01:32:09.617Z,87.23
2016-03-27T01:33:09.620Z,87.41
2016-03-27T01:34:09.623Z,87.7
2016-03-27T01:35:09.625Z,87.41
2016-03-27T01:36:09.628Z,87.6
2016-03-27T01:37:09.631Z,87.32
2016-03-27T01:38:09.617Z,87.32
2016-03-27T01:39:09.620Z,87.32
2016-03-27T01:40:09.623Z,87.6
2016-03-27T01:41:09.626Z,87.6
2016-03-27T01:42:09.614Z,87.7
2016-03-27T01:43:09.616Z,87.51
2016-03-27T01:44:09.649Z,87.7
2016-03-27T01:45:09.621Z,87.7
2016-03-27T01:46:09.624Z,87.23
2016-03-27T01:47:09.627Z,87.32
2016-03-27T01:48:09.629Z,87.98
2016-03-27T01:49:09.616Z,88.07
2016-03-27T01:50:09.619Z,87.88
2016-03-27T01:51:09.622Z,87.79
2016-03-27T01:52:09.624Z,87.7
2016-03-27T01:53:09.611Z,87.79
2016-03-27T01:54:09.614Z,88.26
2016-03-27T01:55:09.616Z,88.36
2016-03-27T01:56:09.619Z,88.17
2016-03-27T01:57:09.622Z,88.55
2016-03-27T01:58:09.624Z,88.26
2016-03-27T01:59:09.612Z,88.64
2016-03-27T02:00:09.599Z,88.45
2016-03-27T02:01:09.617Z,88.55
2016-03-27T02:02:09.620Z,88.36
2016-03-27T02:03:09.607Z,87.98
2016-03-27T02:04:09.625Z,88.17
2016-03-27T02:05:09.613Z,88.07
2016-03-27T02:06:09.615Z,88.17
2016-03-27T02:07:09.628Z,87.98
2016-03-27T02:08:09.613Z,88.55
2016-03-27T02:09:09.459Z,88.74
2016-03-27T02:10:10.563Z,88.45
2016-03-27T02:11:09.615Z,88.45
2016-03-27T02:12:09.603Z,89.02
2016-03-27T02:13:09.605Z,89.02
2016-03-27T02:14:09.624Z,88.83
2016-03-27T02:15:09.611Z,89.02
2016-03-27T02:16:09.613Z,89.4
2016-03-27T02:17:09.694Z,89.31
2016-03-27T02:18:09.603Z,88.64
2016-03-27T02:19:09.606Z,89.12
2016-03-27T02:20:09.609Z,89.02
2016-03-27T02:21:09.611Z,89.21
2016-03-27T02:22:09.598Z,89.02
2016-03-27T02:23:09.601Z,89.21
2016-03-27T02:24:09.619Z,89.21
2016-03-27T02:25:09.605Z,89.12
2016-03-27T02:26:09.608Z,89.21
2016-03-27T02:27:09.596Z,89.31
2016-03-27T02:28:09.614Z,89.5
2016-03-27T02:29:09.602Z,89.31
2016-03-27T02:30:09.588Z,89.07
2016-03-27T02:31:09.607Z,89.12
2016-03-27T02:32:09.594Z,89.21
2016-03-27T02:33:09.596Z,88.88
2016-03-27T02:34:09.599Z,89.45
2016-03-27T02:35:09.601Z,89.83
2016-03-27T02:36:09.605Z,89.54
2016-03-27T02:37:09.592Z,89.54
2016-03-27T02:38:09.595Z,89.54
2016-03-27T02:39:09.598Z,89.73
2016-03-27T02:40:09.600Z,89.26
2016-03-27T02:41:09.603Z,89.54
2016-03-27T02:42:09.606Z,89.07
2016-03-27T02:43:09.592Z,89.64
2016-03-27T02:44:09.611Z,89.83
2016-03-27T02:45:09.613Z,89.36
2016-03-27T02:46:09.616Z,88.98
2016-03-27T02:47:09.587Z,89.36
2016-03-27T02:48:09.590Z,89.26
2016-03-27T02:49:09.592Z,89.26
2016-03-27T02:50:09.595Z,89.17
2016-03-27T02:51:09.598Z,89.17
2016-03-27T02:52:09.600Z,89.26
2016-03-27T02:53:09.588Z,89.54
2016-03-27T02:54:09.591Z,89.83
2016-03-27T02:55:09.593Z,89.64
2016-03-27T02:56:09.596Z,89.64
2016-03-27T02:57:09.599Z,89.64
2016-03-27T02:58:09.585Z,89.07
2016-03-27T02:59:09.605Z,89.07
2016-03-27T03:00:09.591Z,89.07
2016-03-27T03:01:09.593Z,89.64
2016-03-27T03:02:09.660Z,89.45
2016-03-27T03:03:09.583Z,89.26
2016-03-27T03:04:09.586Z,89.07
2016-03-27T03:05:09.589Z,89.17
2016-03-27T03:06:09.591Z,89.17
2016-03-27T03:07:09.579Z,89.17
2016-03-27T03:08:09.582Z,89.26
2016-03-27T03:09:09.584Z,89.17
2016-03-27T03:10:09.586Z,89.26
2016-03-27T03:11:09.574Z,89.17
2016-03-27T03:12:09.592Z,89.73
2016-03-27T03:13:09.579Z,89.26
2016-03-27T03:14:09.598Z,89.26
2016-03-27T03:15:09.584Z,89.26
2016-03-27T03:16:09.587Z,89.07
2016-03-27T03:17:09.793Z,89.17
2016-03-27T03:18:09.577Z,89.36
2016-03-27T03:19:09.580Z,89.07
2016-03-27T03:20:09.583Z,89.36
2016-03-27T03:21:09.585Z,89.17
2016-03-27T03:22:09.589Z,89.54
2016-03-27T03:23:09.575Z,89.36
2016-03-27T03:24:09.577Z,89.07
2016-03-27T03:25:09.581Z,89.45
2016-03-27T03:26:09.583Z,89.36
2016-03-27T03:27:09.586Z,89.45
2016-03-27T03:28:09.588Z,90.2
2016-03-27T03:29:09.591Z,89.73
2016-03-27T03:30:09.577Z,90.01
2016-03-27T03:31:09.581Z,90.11
2016-03-27T03:32:09.599Z,90.2
2016-03-27T03:33:09.570Z,90.2
2016-03-27T03:34:09.574Z,89.92
2016-03-27T03:35:09.576Z,90.11
2016-03-27T03:36:09.578Z,90.01
2016-03-27T03:37:09.566Z,89.92
2016-03-27T03:38:09.568Z,89.92
2016-03-27T03:39:09.571Z,89.73
2016-03-27T03:40:09.574Z,90.2
2016-03-27T03:41:09.592Z,90.2
2016-03-27T03:42:09.579Z,90.39
2016-03-27T03:43:09.582Z,90.11
2016-03-27T03:44:09.568Z,90.3
2016-03-27T03:45:09.571Z,90.2
2016-03-27T03:46:09.574Z,90.2
2016-03-27T03:47:09.576Z,90.39
2016-03-27T03:48:09.564Z,90.58
2016-03-27T03:49:09.567Z,90.58
2016-03-27T03:50:09.569Z,90.68
2016-03-27T03:51:09.572Z,90.86
2016-03-27T03:52:09.559Z,91.15
2016-03-27T03:53:09.561Z,90.68
2016-03-27T03:54:09.564Z,90.96
2016-03-27T03:55:09.567Z,90.49
2016-03-27T03:56:09.569Z,90.49
2016-03-27T03:57:09.558Z,91.24
2016-03-27T03:58:09.560Z,90.86
2016-03-27T03:59:09.563Z,91.05
2016-03-27T04:00:09.549Z,90.96
2016-03-27T04:01:09.552Z,90.68
2016-03-27T04:02:09.805Z,91.05
2016-03-27T04:03:09.557Z,91.15
2016-03-27T04:04:09.560Z,91.05
2016-03-27T04:05:09.563Z,91.24
2016-03-27T04:06:09.566Z,90.68
2016-03-27T04:07:09.553Z,90.86
2016-03-27T04:08:09.557Z,90.77
2016-03-27T04:09:09.559Z,90.96
2016-03-27T04:10:09.547Z,90.77
2016-03-27T04:11:09.565Z,90.77
2016-03-27T04:12:09.567Z,90.86
2016-03-27T04:13:09.555Z,90.77
2016-03-27T04:14:09.558Z,90.77
2016-03-27T04:15:09.561Z,90.77
2016-03-27T04:16:09.563Z,90.77
2016-03-27T04:17:09.597Z,91.24
2016-03-27T04:18:09.553Z,91.24
2016-03-27T04:19:09.556Z,90.86
2016-03-27T04:20:09.542Z,91.15
2016-03-27T04:21:09.544Z,90.96
2016-03-27T04:22:09.548Z,91.05
2016-03-27T04:23:09.550Z,91.05
2016-03-27T04:24:09.553Z,90.96
2016-03-27T04:25:09.556Z,91.15
2016-03-27T04:26:09.543Z,91.05
2016-03-27T04:27:09.546Z,91.05
2016-03-27T04:28:09.549Z,90.96
2016-03-27T04:29:09.535Z,90.58
2016-03-27T04:30:09.537Z,91.05
2016-03-27T04:31:09.541Z,91.15
2016-03-27T04:32:09.559Z,91.15
2016-03-27T04:33:09.546Z,91.15
2016-03-27T04:34:09.549Z,91.34
2016-03-27T04:35:09.536Z,91.05
2016-03-27T04:36:09.539Z,91.05
2016-03-27T04:37:09.542Z,91.05
2016-03-27T04:38:09.545Z,91.05
2016-03-27T04:39:09.531Z,91.05
2016-03-27T04:40:09.534Z,91.05
2016-03-27T04:41:09.536Z,90.77
2016-03-27T04:42:09.540Z,91.15
2016-03-27T04:43:09.542Z,91.05
2016-03-27T04:44:09.528Z,91.05
2016-03-27T04:45:09.531Z,90.96
2016-03-27T04:46:09.534Z,91.62
2016-03-27T04:47:09.569Z,91.43
2016-03-27T04:48:09.539Z,91.34
2016-03-27T04:49:09.527Z,91.53
2016-03-27T04:50:09.530Z,91.53
2016-03-27T04:51:09.532Z,91.24
2016-03-27T04:52:09.535Z,91.53
2016-03-27T04:53:09.538Z,91.72
2016-03-27T04:54:09.540Z,91.81
2016-03-27T04:55:09.543Z,92
2016-03-27T04:56:09.530Z,91.72
2016-03-27T04:57:09.532Z,91.72
2016-03-27T04:58:09.519Z,91.43
2016-03-27T04:59:09.522Z,91.43
2016-03-27T05:00:09.524Z,91.72
2016-03-27T05:01:09.527Z,91.62
2016-03-27T05:02:09.530Z,91.15
2016-03-27T05:03:09.517Z,91.53
2016-03-27T05:04:09.520Z,91.43
2016-03-27T05:05:09.523Z,91.62
2016-03-27T05:06:09.540Z,92.1
2016-03-27T05:07:09.529Z,91.43
2016-03-27T05:08:09.531Z,91.43
2016-03-27T05:09:09.518Z,92.29
2016-03-27T05:10:09.521Z,92
2016-03-27T05:11:09.523Z,92.1
2016-03-27T05:12:09.526Z,91.62
2016-03-27T05:13:09.513Z,91.43
2016-03-27T05:14:09.516Z,91.24
2016-03-27T05:15:09.518Z,91.43
2016-03-27T05:16:09.522Z,91.43
2016-03-27T05:17:09.539Z,91.53
2016-03-27T05:18:09.511Z,92
2016-03-27T05:19:09.514Z,92.1
2016-03-27T05:20:09.516Z,92
2016-03-27T05:21:09.519Z,92
2016-03-27T05:22:09.506Z,91.72
2016-03-27T05:23:09.508Z,92.29
2016-03-27T05:24:09.511Z,92.1
2016-03-27T05:25:09.514Z,91.72
2016-03-27T05:26:09.516Z,92.29
2016-03-27T05:27:09.520Z,92.99
2016-03-27T05:28:09.522Z,92.9
2016-03-27T05:29:09.493Z,92.99
2016-03-27T05:30:09.497Z,93.18
2016-03-27T05:31:09.515Z,92.8
2016-03-27T05:32:09.501Z,93.28
2016-03-27T05:33:09.504Z,93.47
2016-03-27T05:34:09.507Z,93.66
2016-03-27T05:35:09.510Z,93.61
2016-03-27T05:36:09.513Z,94.08
2016-03-27T05:37:09.499Z,93.89
2016-03-27T05:38:09.501Z,93.46
2016-03-27T05:39:09.505Z,93.37
2016-03-27T05:40:09.507Z,93.84
2016-03-27T05:41:09.525Z,93.18
2016-03-27T05:42:09.513Z,93.23
2016-03-27T05:43:09.515Z,92.99
2016-03-27T05:44:09.503Z,93.04
2016-03-27T05:45:09.506Z,92.66
2016-03-27T05:46:09.508Z,92.76
2016-03-27T05:47:09.526Z,92.38
2016-03-27T05:48:09.497Z,92
2016-03-27T05:49:09.500Z,92.19
2016-03-27T05:50:09.503Z,92.28
2016-03-27T05:51:09.506Z,92.19
2016-03-27T05:52:09.508Z,92.28
2016-03-27T05:53:09.512Z,92.57
2016-03-27T05:54:09.514Z,92.19
2016-03-27T05:55:09.516Z,92.19
2016-03-27T05:56:09.519Z,92.19
2016-03-27T05:57:09.522Z,91.81
2016-03-27T05:58:09.509Z,91.81
2016-03-27T05:59:09.512Z,92.04
2016-03-27T06:00:09.499Z,91.57
2016-03-27T06:01:09.517Z,91.57
2016-03-27T06:02:09.505Z,91.28
2016-03-27T06:03:09.507Z,91.38
2016-03-27T06:04:09.509Z,91.28
2016-03-27T06:05:09.513Z,91.76
2016-03-27T06:06:09.499Z,91.85
2016-03-27T06:07:09.501Z,92.18
2016-03-27T06:08:09.505Z,92.33
2016-03-27T06:09:09.523Z,92.37
2016-03-27T06:10:09.526Z,92.51
2016-03-27T06:11:09.513Z,91.66
2016-03-27T06:12:09.515Z,90.47
2016-03-27T06:13:09.503Z,88.99
2016-03-27T06:14:09.506Z,87.32
2016-03-27T06:15:09.508Z,86.12
2016-03-27T06:16:09.510Z,83.93
2016-03-27T06:17:09.514Z,81.49
2016-03-27T06:18:09.516Z,78.77
2016-03-27T06:19:09.519Z,76.29
2016-03-27T06:20:09.522Z,73.47
2016-03-27T06:21:09.524Z,70.16
2016-03-27T06:22:09.527Z,67.49
2016-03-27T06:23:09.530Z,64.94
2016-03-27T06:24:09.516Z,63.32
2016-03-27T06:25:09.519Z,61.41
2016-03-27T06:26:09.538Z,58.67
2016-03-27T06:27:09.524Z,56.57
2016-03-27T06:28:09.528Z,55.42
2016-03-27T06:29:09.530Z,53.89
2016-03-27T06:30:09.532Z,52.2
2016-03-27T06:31:09.536Z,50.57
2016-03-27T06:32:09.538Z,50
2016-03-27T06:33:09.540Z,49.04
2016-03-27T06:34:09.544Z,48.09
2016-03-27T06:35:09.546Z,47.42
2016-03-27T06:36:09.549Z,46.94
2016-03-27T06:37:09.551Z,47.01
2016-03-27T06:38:09.554Z,46.25
2016-03-27T06:39:09.573Z,46.25
2016-03-27T06:40:09.559Z,46.03
2016-03-27T06:41:09.562Z,46.03
2016-03-27T06:42:09.565Z,45.94
2016-03-27T06:43:09.567Z,45.72
2016-03-27T06:44:09.587Z,45.72
2016-03-27T06:45:09.573Z,45.92
2016-03-27T06:46:09.576Z,46.11
2016-03-27T06:47:09.578Z,46.11
2016-03-27T06:48:09.581Z,45.99
2016-03-27T06:49:09.584Z,46.18
2016-03-27T06:50:09.587Z,46.56
2016-03-27T06:51:09.589Z,46.56
2016-03-27T06:52:09.592Z,46.08
2016-03-27T06:53:09.594Z,46.54
2016-03-27T06:54:09.597Z,47.02
2016-03-27T06:55:09.599Z,46.82
2016-03-27T06:56:09.603Z,46.82
2016-03-27T06:57:09.605Z,46.73
2016-03-27T06:58:09.607Z,47.3
2016-03-27T06:59:09.611Z,47.02
2016-03-27T07:00:09.613Z,47.2
2016-03-27T07:01:09.616Z,46.82
2016-03-27T07:02:09.619Z,47.02
2016-03-27T07:03:09.621Z,47.3
2016-03-27T07:04:09.624Z,48.04
2016-03-27T07:05:09.627Z,47.75
2016-03-27T07:06:09.629Z,48.61
2016-03-27T07:07:09.632Z,49.35
2016-03-27T07:08:09.635Z,50.68
2016-03-27T07:09:09.638Z,51.99
2016-03-27T07:10:09.640Z,53.96
2016-03-27T07:11:09.642Z,55.17
2016-03-27T07:12:09.646Z,56.57
2016-03-27T07:13:09.648Z,57.33
2016-03-27T07:14:09.650Z,57.62
2016-03-27T07:15:09.654Z,58.25
2016-03-27T07:16:09.656Z,59.2
2016-03-27T07:17:09.659Z,60.63
2016-03-27T07:18:09.662Z,60.63
2016-03-27T07:19:09.664Z,61.48
2016-03-27T07:20:09.667Z,61.68
2016-03-27T07:21:09.670Z,62.5
2016-03-27T07:22:09.672Z,62.69
2016-03-27T07:23:09.675Z,62.88
2016-03-27T07:24:09.662Z,62.88
2016-03-27T07:25:09.681Z,63.54
2016-03-27T07:26:09.667Z,63.92
2016-03-27T07:27:09.670Z,63.83
2016-03-27T07:28:09.673Z,64.11
2016-03-27T07:29:09.676Z,64.4
2016-03-27T07:30:09.677Z,64.87
2016-03-27T07:31:09.681Z,64.69
2016-03-27T07:32:09.668Z,64.59
2016-03-27T07:33:09.686Z,64.49
2016-03-27T07:34:09.689Z,64.62
2016-03-27T07:35:09.691Z,64.43
2016-03-27T07:36:09.694Z,64.53
2016-03-27T07:37:09.697Z,64.81
2016-03-27T07:38:09.699Z,64.27
2016-03-27T07:39:09.687Z,64.18
2016-03-27T07:40:09.690Z,64.08
2016-03-27T07:41:09.692Z,63.42
2016-03-27T07:42:09.711Z,63.17
2016-03-27T07:43:09.698Z,63.17
2016-03-27T07:44:09.700Z,62.97
2016-03-27T07:45:09.704Z,62.3
2016-03-27T07:46:09.706Z,62.69
2016-03-27T07:47:09.708Z,62.3
2016-03-27T07:48:09.711Z,61.83
2016-03-27T07:49:09.714Z,61.67
2016-03-27T07:50:09.748Z,61.38
2016-03-27T07:51:09.719Z,61.19
2016-03-27T07:52:09.722Z,60.34
2016-03-27T07:53:09.725Z,60.44
2016-03-27T07:54:09.727Z,60.24
2016-03-27T07:55:09.714Z,60.15
2016-03-27T07:56:09.717Z,60.34
2016-03-27T07:57:09.719Z,60.37
2016-03-27T07:58:09.723Z,59.03
2016-03-27T07:59:09.725Z,59.16
2016-03-27T08:00:09.727Z,58.33
2016-03-27T08:01:09.731Z,57.19
2016-03-27T08:02:09.733Z,56.26
2016-03-27T08:03:09.735Z,55.31
2016-03-27T08:04:09.738Z,54.29
2016-03-27T08:05:09.741Z,53.81
2016-03-27T08:06:09.743Z,52.67
2016-03-27T08:07:09.747Z,52.31
2016-03-27T08:08:09.734Z,51.74
2016-03-27T08:09:09.751Z,51.45
2016-03-27T08:10:09.740Z,51.35
2016-03-27T08:11:09.742Z,51.26
2016-03-27T08:12:09.744Z,51.07
2016-03-27T08:13:09.748Z,51.17
2016-03-27T08:14:09.750Z,50.88
2016-03-27T08:15:09.753Z,50.88
2016-03-27T08:16:09.771Z,50.14
2016-03-27T08:17:09.773Z,49.3
2016-03-27T08:18:09.761Z,48.07
2016-03-27T08:19:09.764Z,47.23
2016-03-27T08:20:09.766Z,46.37
2016-03-27T08:21:09.769Z,45.6
2016-03-27T08:22:09.772Z,45.24
2016-03-27T08:23:09.775Z,44.76
2016-03-27T08:24:09.777Z,44.38
2016-03-27T08:25:09.780Z,44
2016-03-27T08:26:09.782Z,44.38
2016-03-27T08:27:09.785Z,44.19
2016-03-27T08:28:09.788Z,43.71
2016-03-27T08:29:09.790Z,44
2016-03-27T08:30:09.793Z,44
2016-03-27T08:31:09.780Z,43.23
2016-03-27T08:32:09.799Z,43.23
2016-03-27T08:33:09.832Z,42.85
2016-03-27T08:34:09.804Z,42.27
2016-03-27T08:35:09.807Z,42.85
2016-03-27T08:36:09.809Z,42.66
2016-03-27T08:37:09.812Z,43.23
2016-03-27T08:38:09.815Z,43.23
2016-03-27T08:39:09.817Z,43.5
2016-03-27T08:40:09.805Z,43.98
2016-03-27T08:41:09.823Z,44.26
2016-03-27T08:42:09.809Z,43.69
2016-03-27T08:43:09.828Z,43.23
2016-03-27T08:44:09.831Z,42.49
2016-03-27T08:45:09.817Z,41.65
2016-03-27T08:46:09.836Z,40.9
2016-03-27T08:47:09.839Z,39.58
2016-03-27T08:48:09.841Z,37.13
2016-03-27T08:49:09.845Z,34.67
2016-03-27T08:50:09.893Z,32.78
2016-03-27T08:51:09.849Z,30.69
2016-03-27T08:52:09.853Z,29.57
2016-03-27T08:53:09.855Z,28.15
2016-03-27T08:54:09.857Z,26.14
2016-03-27T08:55:09.845Z,25.1
2016-03-27T08:56:09.863Z,24.63
2016-03-27T08:57:09.866Z,23.5
2016-03-27T08:58:09.853Z,22.34
2016-03-27T08:59:09.792Z,21.58
2016-03-27T09:00:09.874Z,20.72
2016-03-27T09:01:09.876Z,20.24
2016-03-27T09:02:09.879Z,19.19
2016-03-27T09:03:10.038Z,18.13
2016-03-27T09:04:09.884Z,18.15
2016-03-27T09:05:09.888Z,18.04
2016-03-27T09:06:09.890Z,18.23
2016-03-27T09:07:09.893Z,18.22
2016-03-27T09:08:09.893Z,18.51
2016-03-27T09:09:09.896Z,18.98
2016-03-27T09:10:09.899Z,19.93
2016-03-27T09:11:09.901Z,20.68
2016-03-27T09:12:09.904Z,20.86
2016-03-27T09:13:09.907Z,21.73
2016-03-27T09:14:09.910Z,21.62
2016-03-27T09:15:09.912Z,21.72
2016-03-27T09:16:09.915Z,22.1
2016-03-27T09:17:09.918Z,23.15
2016-03-27T09:18:10.013Z,23.72
2016-03-27T09:19:09.923Z,24.28
2016-03-27T09:20:09.926Z,25.15
2016-03-27T09:21:09.928Z,25.91
2016-03-27T09:22:09.932Z,26.67
2016-03-27T09:23:09.949Z,27.42
2016-03-27T09:24:09.947Z,27.7
2016-03-27T09:25:09.923Z,27.97
2016-03-27T09:26:09.928Z,28.36
2016-03-27T09:27:09.919Z,29.13
2016-03-27T09:28:09.910Z,29.49
2016-03-27T09:29:09.904Z,30.17
2016-03-27T09:30:09.903Z,30.26
2016-03-27T09:31:09.901Z,30.07
2016-03-27T09:32:09.899Z,29.88
2016-03-27T09:33:10.226Z,29.41
2016-03-27T09:34:09.897Z,29.03
2016-03-27T09:35:09.898Z,27.89
2016-03-27T09:36:09.899Z,27.42
2016-03-27T09:37:09.917Z,26.57
2016-03-27T09:38:09.918Z,26.29
2016-03-27T09:39:09.920Z,25.43
2016-03-27T09:40:09.922Z,25.44
2016-03-27T09:41:09.924Z,25.44
2016-03-27T09:42:09.927Z,25.34
2016-03-27T09:43:09.928Z,25.24
2016-03-27T09:44:09.930Z,25.15
2016-03-27T09:45:09.933Z,25.34
2016-03-27T09:46:09.935Z,25.92
2016-03-27T09:47:09.938Z,25.71
2016-03-27T09:48:10.205Z,26.29
2016-03-27T09:49:09.942Z,26.18
2016-03-27T09:50:09.945Z,26.94
2016-03-27T09:51:09.963Z,27.23
2016-03-27T09:52:09.966Z,27.33
2016-03-27T09:53:09.968Z,27.8
2016-03-27T09:54:09.971Z,28.55
2016-03-27T09:55:09.973Z,29.13
2016-03-27T09:56:09.977Z,29.79
2016-03-27T09:57:09.979Z,30.17
2016-03-27T09:58:09.981Z,30.36
2016-03-27T09:59:09.985Z,30.55
2016-03-27T10:00:09.987Z,30.74
2016-03-27T10:01:09.833Z,30.93
2016-03-27T10:02:09.993Z,30.84
2016-03-27T10:03:10.136Z,31.02
2016-03-27T10:04:10.014Z,31.21
2016-03-27T10:05:10.017Z,31.11
2016-03-27T10:06:10.035Z,31.59
2016-03-27T10:07:10.022Z,32.06
2016-03-27T10:08:10.025Z,32.06
2016-03-27T10:09:10.027Z,32.64
2016-03-27T10:10:10.030Z,33.11
2016-03-27T10:11:10.049Z,33.21
2016-03-27T10:12:10.035Z,33.11
2016-03-27T10:13:10.054Z,33.67
2016-03-27T10:14:10.041Z,34.15
2016-03-27T10:15:10.059Z,34.71
2016-03-27T10:16:10.062Z,34.9
2016-03-27T10:17:10.065Z,34.63
2016-03-27T10:18:10.317Z,35.49
2016-03-27T10:19:10.085Z,35.77
2016-03-27T10:20:10.073Z,35.77
2016-03-27T10:21:10.075Z,35.67
2016-03-27T10:22:10.079Z,35.86
2016-03-27T10:23:10.081Z,35.57
2016-03-27T10:24:10.098Z,35.57
2016-03-27T10:25:10.102Z,35.38
2016-03-27T10:26:10.104Z,35.28
2016-03-27T10:27:10.106Z,35.59
2016-03-27T10:28:10.110Z,35.59
2016-03-27T10:29:10.112Z,34.92
2016-03-27T10:30:10.115Z,34.92
2016-03-27T10:31:10.117Z,34.27
2016-03-27T10:32:10.120Z,33.77
2016-03-27T10:33:10.185Z,33.86
2016-03-27T10:34:10.142Z,34.63
2016-03-27T10:35:10.128Z,35.28
2016-03-27T10:36:10.130Z,35.57
2016-03-27T10:37:10.134Z,35.38
2016-03-27T10:38:10.152Z,35.4
2016-03-27T10:39:10.155Z,35.67
2016-03-27T10:40:10.158Z,35.57
2016-03-27T10:41:10.160Z,35.67
2016-03-27T10:42:10.163Z,35.78
2016-03-27T10:43:10.166Z,35.02
2016-03-27T10:44:10.168Z,34.25
2016-03-27T10:45:10.171Z,33.88
2016-03-27T10:46:10.174Z,33.69
2016-03-27T10:47:10.193Z,33.11
2016-03-27T10:48:10.211Z,32.93
2016-03-27T10:49:10.182Z,32.75
2016-03-27T10:50:10.184Z,32.84
2016-03-27T10:51:10.203Z,32.46
2016-03-27T10:52:10.206Z,32.84
2016-03-27T10:53:10.208Z,32.55
2016-03-27T10:54:10.211Z,32.46
2016-03-27T10:55:10.214Z,32.65
2016-03-27T10:56:10.217Z,32.55
2016-03-27T10:57:10.234Z,32.75
2016-03-27T10:58:10.237Z,32.26
2016-03-27T10:59:10.240Z,32.26
2016-03-27T11:00:10.242Z,32.46
2016-03-27T11:01:10.261Z,32.65
2016-03-27T11:02:10.248Z,32.75
2016-03-27T11:03:10.250Z,32.55
2016-03-27T11:04:10.254Z,32.75
2016-03-27T11:05:10.256Z,31.11
2016-03-27T11:06:10.274Z,30.84
2016-03-27T11:07:10.262Z,30.18
2016-03-27T11:08:10.264Z,29.99
2016-03-27T11:09:10.266Z,29.8
2016-03-27T11:10:10.285Z,29.9
2016-03-27T11:11:10.288Z,29.99
2016-03-27T11:12:10.291Z,29.9
2016-03-27T11:13:10.293Z,30.08
2016-03-27T11:14:10.296Z,29.9
2016-03-27T11:15:10.299Z,29.7
2016-03-27T11:16:10.301Z,28.84
2016-03-27T11:17:10.319Z,28.93
2016-03-27T11:18:10.322Z,29.4
2016-03-27T11:19:10.324Z,29.79
2016-03-27T11:20:10.328Z,29.69
2016-03-27T11:21:10.346Z,30.17
2016-03-27T11:22:10.332Z,30.44
2016-03-27T11:23:10.336Z,30.73
2016-03-27T11:24:10.354Z,30.73
2016-03-27T11:25:10.340Z,31.02
2016-03-27T11:26:10.359Z,30.82
2016-03-27T11:27:10.346Z,30.55
2016-03-27T11:28:10.365Z,30.36
2016-03-27T11:29:10.367Z,30.36
2016-03-27T11:30:10.370Z,30.07
2016-03-27T11:31:10.389Z,29.79
2016-03-27T11:32:10.375Z,29.88
2016-03-27T11:33:10.394Z,29.69
2016-03-27T11:34:10.381Z,29.88
2016-03-27T11:35:10.384Z,29.88
2016-03-27T11:36:10.403Z,29.69
2016-03-27T11:37:10.405Z,29.69
2016-03-27T11:38:10.407Z,29.97
2016-03-27T11:39:10.253Z,30.26
2016-03-27T11:40:10.413Z,30.36
2016-03-27T11:41:10.431Z,30.46
2016-03-27T11:42:10.418Z,30.36
2016-03-27T11:43:10.468Z,30.46
2016-03-27T11:44:10.439Z,30.55
2016-03-27T11:45:10.441Z,30.65
2016-03-27T11:46:10.444Z,30.65
2016-03-27T11:47:10.447Z,31.13
2016-03-27T11:48:10.449Z,30.74
2016-03-27T11:49:10.452Z,30.82
2016-03-27T11:50:10.455Z,30.92
2016-03-27T11:51:10.474Z,31.02
2016-03-27T11:52:10.460Z,31.3
2016-03-27T11:53:10.479Z,30.82
2016-03-27T11:54:10.466Z,31.02
2016-03-27T11:55:10.484Z,30.73
2016-03-27T11:56:10.487Z,30.73
2016-03-27T11:57:10.490Z,30.46
2016-03-27T11:58:10.493Z,30.05
2016-03-27T11:59:10.495Z,30.25
2016-03-27T12:00:10.498Z,29.77
2016-03-27T12:01:10.501Z,30.05
2016-03-27T12:02:10.519Z,30.35
2016-03-27T12:03:10.521Z,30.05
2016-03-27T12:04:10.525Z,30.05
2016-03-27T12:05:10.527Z,30.44
2016-03-27T12:06:10.561Z,30.81
2016-03-27T12:07:10.533Z,30.62
2016-03-27T12:08:10.535Z,30.62
2016-03-27T12:09:10.538Z,30.43
2016-03-27T12:10:10.541Z,30.71
2016-03-27T12:11:10.575Z,31.29
2016-03-27T12:12:10.561Z,30.62
2016-03-27T12:13:10.564Z,30.25
2016-03-27T12:14:10.582Z,30.15
2016-03-27T12:15:10.569Z,29.79
2016-03-27T12:16:10.571Z,29.3
2016-03-27T12:17:10.575Z,29.49
2016-03-27T12:18:10.608Z,29.02
2016-03-27T12:19:10.580Z,28.72
2016-03-27T12:20:10.598Z,29
2016-03-27T12:21:10.586Z,29.86
2016-03-27T12:22:10.619Z,30.44
2016-03-27T12:23:10.606Z,30.73
2016-03-27T12:24:10.625Z,30.05
2016-03-27T12:25:10.612Z,29.19
2016-03-27T12:26:10.629Z,28.33
2016-03-27T12:27:10.617Z,28.61
2016-03-27T12:28:10.635Z,29.77
2016-03-27T12:29:10.623Z,30.63
2016-03-27T12:30:10.640Z,30.44
2016-03-27T12:31:10.643Z,30.52
2016-03-27T12:32:10.646Z,30.33
2016-03-27T12:33:10.648Z,30.43
2016-03-27T12:34:10.651Z,30.43
2016-03-27T12:35:10.654Z,30.14
2016-03-27T12:36:10.657Z,30.43
2016-03-27T12:37:10.659Z,31.18
2016-03-27T12:38:10.662Z,31.56
2016-03-27T12:39:10.681Z,31.66
2016-03-27T12:40:10.667Z,31.56
2016-03-27T12:41:10.686Z,31.75
2016-03-27T12:42:10.688Z,31.75
2016-03-27T12:43:10.692Z,31.85
2016-03-27T12:44:10.694Z,31.46
2016-03-27T12:45:10.712Z,31.46
2016-03-27T12:46:10.699Z,31.85
2016-03-27T12:47:10.702Z,31.75
2016-03-27T12:48:10.721Z,32.21
2016-03-27T12:49:10.707Z,32.21
2016-03-27T12:50:10.727Z,32.51
2016-03-27T12:51:10.729Z,32.51
2016-03-27T12:52:10.731Z,32.89
2016-03-27T12:53:10.750Z,33.65
2016-03-27T12:54:10.721Z,33.65
2016-03-27T12:55:10.740Z,33.75